Time;durP1;ratioP1;P1;durP2;ratioP2;P2;SDS_P1;SDS_P2;PMS_P1;PMS_P2;Temp;Humidity;BMP_temperature;BMP_pressure;BME280_temperature;BME280_humidity;BME280_pressure;Samples;Min_cycle;Max_cycle;Signal;HPM_P1;HPM_P2
2023/04/14 00:01:30;;;;;;;8.00;3.28;;;;;;;5.37;95.08;100135.16;5056703;28;20098;-77
2023/04/14 00:03:57;;;;;;;10.02;3.50;;;;;;;5.38;95.50;100129.84;5043021;28;20451;-76
2023/04/14 00:06:25;;;;;;;8.18;4.78;;;;;;;5.36;95.50;100136.13;5050822;28;20072;-78
2023/04/14 00:08:52;;;;;;;5.07;3.45;;;;;;;5.40;95.42;100135.72;5046811;28;20057;-78
2023/04/14 00:11:19;;;;;;;8.07;3.60;;;;;;;5.43;95.30;100130.28;5055285;28;20049;-77
2023/04/14 00:13:45;;;;;;;8.13;3.42;;;;;;;5.43;95.77;100135.47;5054799;28;20068;-78
2023/04/14 00:16:12;;;;;;;6.63;3.53;;;;;;;5.37;95.57;100128.22;5055394;28;20144;-77
2023/04/14 00:18:39;;;;;;;5.65;3.55;;;;;;;5.39;95.37;100138.44;5055463;28;20147;-77
2023/04/14 00:21:07;;;;;;;7.85;3.33;;;;;;;5.36;95.25;100141.31;5054963;28;20489;-78
2023/04/14 00:23:35;;;;;;;5.65;3.10;;;;;;;5.35;95.27;100145.69;5054239;28;20128;-78
2023/04/14 00:26:02;;;;;;;6.55;3.33;;;;;;;5.31;95.18;100139.94;5054450;28;20528;-75
2023/04/14 00:28:28;;;;;;;5.38;3.30;;;;;;;5.28;94.91;100147.16;5047760;28;20053;-78
2023/04/14 00:30:55;;;;;;;8.07;3.40;;;;;;;5.29;95.00;100147.03;5054640;28;20047;-78
2023/04/14 00:33:22;;;;;;;7.10;3.13;;;;;;;5.31;94.73;100146.91;5054733;28;20663;-78
2023/04/14 00:35:48;;;;;;;7.07;3.22;;;;;;;5.30;94.85;100143.50;5055248;28;20053;-78
2023/04/14 00:38:15;;;;;;;6.65;3.40;;;;;;;5.25;94.90;100139.66;5055150;28;20091;-77
2023/04/14 00:40:43;;;;;;;5.90;3.60;;;;;;;5.18;95.17;100148.94;5054875;28;20080;-77
2023/04/14 00:43:10;;;;;;;4.32;2.72;;;;;;;5.19;95.16;100150.59;5055411;28;20095;-78
2023/04/14 00:45:40;;;;;;;6.13;3.05;;;;;;;5.11;94.70;100153.03;5054450;28;20653;-78
2023/04/14 00:48:08;;;;;;;5.18;2.97;;;;;;;5.12;95.06;100154.66;5048406;28;20049;-79
2023/04/14 00:50:34;;;;;;;6.10;3.38;;;;;;;5.12;94.96;100154.66;5047501;28;20057;-76
2023/04/14 00:53:02;;;;;;;7.03;3.35;;;;;;;5.13;95.19;100156.31;5052036;28;20132;-78
2023/04/14 00:55:30;;;;;;;7.32;3.25;;;;;;;5.18;94.88;100159.31;5051106;28;20139;-79
2023/04/14 00:57:58;;;;;;;9.18;3.30;;;;;;;5.13;94.69;100156.31;5054550;28;20045;-79
2023/04/14 01:00:25;;;;;;;4.47;3.20;;;;;;;5.11;94.71;100160.81;5055228;28;20073;-78
2023/04/14 01:02:52;;;;;;;7.25;3.60;;;;;;;5.08;94.77;100156.69;5054749;28;20126;-79
2023/04/14 01:05:18;;;;;;;8.02;3.78;;;;;;;5.11;95.03;100174.59;5054678;28;20111;-78
2023/04/14 01:07:47;;;;;;;7.80;3.50;;;;;;;5.08;94.65;100176.63;5045853;28;20513;-76
2023/04/14 01:10:13;;;;;;;7.93;3.53;;;;;;;5.03;94.82;100173.59;5046353;28;20053;-77
2023/04/14 01:12:57;;;;;;;7.78;3.47;;;;;;;4.98;94.75;100166.22;5055087;28;20140;-78
2023/04/14 01:15:34;;;;;;;12.18;3.88;;;;;;;4.97;95.01;100172.34;5048403;28;20136;-79
2023/04/14 01:18:10;;;;;;;10.63;4.95;;;;;;;4.94;94.93;100182.97;5045355;28;20053;-78
2023/04/14 01:20:41;;;;;;;6.80;3.83;;;;;;;4.83;95.53;100180.47;5054164;28;20064;-77
2023/04/14 01:23:11;;;;;;;8.00;3.92;;;;;;;4.73;95.01;100180.44;5062570;28;20045;-76
2023/04/14 01:26:06;;;;;;;7.75;4.00;;;;;;;4.60;95.76;100190.22;5061513;28;20083;-77
2023/04/14 01:28:46;;;;;;;12.73;4.07;;;;;;;4.50;95.96;100191.91;5047599;28;20088;-79
2023/04/14 01:31:21;;;;;;;11.65;4.28;;;;;;;4.44;96.34;100187.25;5052171;28;20103;-79
2023/04/14 01:33:54;;;;;;;9.98;4.05;;;;;;;4.41;96.41;100196.09;5056213;28;20103;-78
2023/04/14 01:36:27;;;;;;;11.32;4.13;;;;;;;4.37;96.95;100196.47;5053091;28;20118;-79
2023/04/14 01:38:55;;;;;;;6.88;4.70;;;;;;;4.39;97.33;100197.16;5050422;28;20127;-79
2023/04/14 01:41:23;;;;;;;9.98;4.47;;;;;;;4.39;98.18;100195.41;5057244;28;20084;-79
2023/04/14 01:43:54;;;;;;;10.38;5.30;;;;;;;4.33;98.46;100201.91;5057273;28;20091;-79
2023/04/14 01:46:37;;;;;;;8.55;4.28;;;;;;;4.35;98.95;100201.78;5052348;28;20094;-79
2023/04/14 01:49:07;;;;;;;11.32;4.85;;;;;;;4.29;98.67;100194.50;5050592;28;20048;-78
2023/04/14 01:51:34;;;;;;;7.05;3.50;;;;;;;4.33;98.85;100198.50;5049868;28;20584;-78
2023/04/14 01:54:03;;;;;;;10.50;4.25;;;;;;;4.29;98.45;100205.69;5049153;28;20108;-78
2023/04/14 01:56:30;;;;;;;10.50;4.28;;;;;;;4.24;98.76;100205.28;5057043;28;20494;-76
2023/04/14 01:58:57;;;;;;;8.30;4.03;;;;;;;4.25;98.71;100206.09;5054285;28;20053;-77
2023/04/14 02:01:27;;;;;;;8.02;3.83;;;;;;;4.23;98.72;100213.16;5047010;28;20128;-78
2023/04/14 02:03:54;;;;;;;12.48;4.57;;;;;;;4.19;98.93;100211.78;5050540;28;20457;-79
2023/04/14 02:06:22;;;;;;;9.60;4.30;;;;;;;4.16;99.00;100223.19;5049403;28;20151;-78
2023/04/14 02:08:50;;;;;;;7.97;4.20;;;;;;;4.10;99.62;100212.50;5055747;28;20049;-79
2023/04/14 02:11:19;;;;;;;7.30;4.35;;;;;;;4.13;99.70;100215.69;5055923;28;20052;-79
2023/04/14 02:13:46;;;;;;;9.27;4.32;;;;;;;4.15;100.00;100215.56;5059175;28;20079;-78
2023/04/14 02:16:15;;;;;;;7.15;3.88;;;;;;;4.06;100.00;100211.94;5054228;28;20453;-76
2023/04/14 02:18:44;;;;;;;15.45;4.80;;;;;;;4.07;100.00;100216.16;5051767;28;20139;-78
2023/04/14 02:21:18;;;;;;;10.50;4.65;;;;;;;4.09;100.00;100214.28;5061887;28;20076;-79
2023/04/14 02:23:44;;;;;;;9.80;4.70;;;;;;;4.10;100.00;100221.09;5050260;28;20304;-78
2023/04/14 02:26:14;;;;;;;9.70;4.18;;;;;;;4.11;100.00;100214.97;5057483;28;20108;-78
2023/04/14 02:28:49;;;;;;;9.50;4.30;;;;;;;4.16;100.00;100219.78;5047876;28;20057;-78
2023/04/14 02:31:22;;;;;;;10.82;5.20;;;;;;;4.18;100.00;100216.13;5053356;28;20052;-80
2023/04/14 02:33:54;;;;;;;12.13;5.50;;;;;;;4.13;100.00;100215.69;5058750;28;20143;-78
2023/04/14 02:36:24;;;;;;;11.85;4.53;;;;;;;4.09;100.00;100232.41;5055742;28;20114;-78
2023/04/14 02:38:57;;;;;;;9.68;4.45;;;;;;;4.05;100.00;100220.66;5057603;28;20400;-77
2023/04/14 02:41:28;;;;;;;8.65;4.30;;;;;;;3.97;100.00;100225.63;5061579;28;20045;-79
2023/04/14 02:44:03;;;;;;;9.65;4.70;;;;;;;3.95;100.00;100224.91;5049851;28;20045;-79
2023/04/14 02:46:35;;;;;;;7.75;4.65;;;;;;;3.86;100.00;100225.66;5053168;28;20077;-79
2023/04/14 02:49:05;;;;;;;9.38;4.15;;;;;;;3.81;100.00;100220.03;5051215;28;20083;-78
2023/04/14 02:51:34;;;;;;;13.77;5.00;;;;;;;3.78;100.00;100228.06;5057090;28;20072;-78
2023/04/14 02:54:01;;;;;;;11.10;4.60;;;;;;;3.78;100.00;100230.66;5055165;28;20045;-78
2023/04/14 02:56:28;;;;;;;9.52;4.90;;;;;;;3.73;100.00;100220.66;5047730;28;20144;-77
2023/04/14 02:58:55;;;;;;;10.30;4.80;;;;;;;3.67;100.00;100221.97;5053667;28;20056;-78
2023/04/14 03:01:24;;;;;;;11.50;5.57;;;;;;;3.66;100.00;100235.84;5047083;28;20073;-78
2023/04/14 03:03:53;;;;;;;10.05;4.80;;;;;;;3.51;100.00;100226.69;5052927;28;20064;-77
2023/04/14 03:06:22;;;;;;;10.90;5.10;;;;;;;3.62;100.00;100234.44;5054859;28;20045;-79
2023/04/14 03:08:51;;;;;;;12.07;5.20;;;;;;;3.50;100.00;100227.63;5057383;28;20055;-79
2023/04/14 03:11:19;;;;;;;11.27;5.38;;;;;;;3.45;100.00;100232.34;5061217;28;20115;-79
2023/04/14 03:13:48;;;;;;;9.95;5.07;;;;;;;3.45;100.00;100232.34;5059903;28;20072;-77
2023/04/14 03:16:15;;;;;;;12.95;5.07;;;;;;;3.46;100.00;100228.81;5057542;28;20506;-76
2023/04/14 03:18:42;;;;;;;12.35;5.45;;;;;;;3.47;100.00;100227.88;5057031;28;20104;-78
2023/04/14 03:21:09;;;;;;;11.50;5.50;;;;;;;3.48;100.00;100228.69;5057737;28;20266;-79
2023/04/14 03:23:39;;;;;;;11.60;5.18;;;;;;;3.39;100.00;100238.00;5053151;28;20052;-78
2023/04/14 03:26:07;;;;;;;10.07;4.97;;;;;;;3.32;100.00;100231.66;5056640;28;20467;-78
2023/04/14 03:28:37;;;;;;;12.20;5.35;;;;;;;3.26;100.00;100227.81;5048281;28;20105;-78
2023/04/14 03:31:07;;;;;;;10.27;4.90;;;;;;;3.26;100.00;100222.63;5044334;28;20092;-79
2023/04/14 03:33:34;;;;;;;8.63;4.63;;;;;;;3.23;100.00;100216.88;5044786;28;20040;-78
2023/04/14 03:36:01;;;;;;;12.55;5.22;;;;;;;3.27;100.00;100223.47;5045800;28;20565;-79
2023/04/14 03:38:28;;;;;;;9.70;4.57;;;;;;;3.27;100.00;100226.88;5045541;28;20053;-77
2023/04/14 03:41:02;;;;;;;15.93;4.95;;;;;;;3.30;100.00;100220.63;5059939;28;20064;-79
2023/04/14 03:43:32;;;;;;;11.45;4.45;;;;;;;3.31;100.00;100217.91;5048747;28;20524;-79
2023/04/14 03:45:59;;;;;;;10.82;4.40;;;;;;;3.31;100.00;100214.50;5049049;28;20076;-78
2023/04/14 03:48:28;;;;;;;11.05;4.90;;;;;;;3.30;100.00;100215.47;5057222;28;20063;-78
2023/04/14 03:50:58;;;;;;;9.80;4.40;;;;;;;3.27;100.00;100216.53;5056692;28;20084;-78
2023/04/14 03:53:26;;;;;;;16.10;6.65;;;;;;;3.21;100.00;100218.75;5060550;28;20049;-79
2023/04/14 03:55:56;;;;;;;13.52;5.60;;;;;;;3.22;100.00;100229.00;5053018;28;20124;-78
2023/04/14 03:58:25;;;;;;;10.98;4.55;;;;;;;3.19;100.00;100223.22;5050541;28;20048;-79
2023/04/14 04:00:53;;;;;;;15.07;5.35;;;;;;;3.24;100.00;100226.28;5051323;28;20128;-78
2023/04/14 04:03:22;;;;;;;8.85;4.30;;;;;;;3.19;100.00;100230.97;5056689;28;20049;-78
2023/04/14 04:05:50;;;;;;;11.23;4.28;;;;;;;3.14;100.00;100230.50;5060517;28;20053;-79
2023/04/14 04:08:19;;;;;;;10.90;4.55;;;;;;;3.14;100.00;100233.09;5057069;28;20478;-78
2023/04/14 04:10:48;;;;;;;7.95;4.15;;;;;;;3.12;100.00;100234.97;5057081;28;20049;-77
2023/04/14 04:13:16;;;;;;;18.15;4.15;;;;;;;3.12;100.00;100229.81;5054126;28;20084;-79
2023/04/14 04:15:46;;;;;;;8.93;4.10;;;;;;;2.94;100.00;100243.19;5054034;28;20102;-78
2023/04/14 04:18:16;;;;;;;10.95;4.68;;;;;;;2.81;100.00;100249.44;5047560;28;20049;-79
2023/04/14 04:20:45;;;;;;;12.77;4.82;;;;;;;2.78;100.00;100247.91;5056015;28;20455;-78
2023/04/14 04:23:12;;;;;;;8.95;4.60;;;;;;;2.74;100.00;100243.06;5055708;28;20053;-78
2023/04/14 04:25:40;;;;;;;11.23;4.85;;;;;;;2.70;100.00;100245.06;5055954;28;20202;-77
2023/04/14 04:28:07;;;;;;;9.30;4.70;;;;;;;2.69;100.00;100256.34;5047748;28;20140;-76
2023/04/14 04:30:38;;;;;;;10.05;4.93;;;;;;;2.70;100.00;100255.41;5038572;28;20136;-77
2023/04/14 04:33:07;;;;;;;11.15;4.85;;;;;;;2.69;100.00;100253.75;5046770;28;20504;-77
2023/04/14 04:35:34;;;;;;;10.32;4.95;;;;;;;2.67;100.00;100259.03;5054874;28;20081;-78
2023/04/14 04:38:01;;;;;;;11.10;4.97;;;;;;;2.75;100.00;100266.22;5047656;28;20141;-78
2023/04/14 04:40:29;;;;;;;15.77;5.28;;;;;;;2.84;100.00;100262.91;5054962;28;20091;-78
2023/04/14 04:42:56;;;;;;;9.55;5.32;;;;;;;2.85;100.00;100261.97;5052267;28;20071;-78
2023/04/14 04:45:44;;;;;;;11.55;5.20;;;;;;;2.84;100.00;100256.91;5049217;28;20075;-78
2023/04/14 04:48:12;;;;;;;12.00;5.47;;;;;;;2.83;100.00;100263.88;5048252;28;20118;-77
2023/04/14 04:50:38;;;;;;;8.00;5.63;;;;;;;2.78;100.00;100268.56;5054212;28;20088;-77
2023/04/14 04:53:05;;;;;;;11.88;5.95;;;;;;;2.78;100.00;100268.56;5045888;28;20053;-77
2023/04/14 04:55:31;;;;;;;10.93;5.90;;;;;;;2.81;100.00;100268.34;5054206;28;20053;-78
2023/04/14 04:57:58;;;;;;;15.82;6.00;;;;;;;2.92;100.00;100259.75;5054470;28;20141;-77
2023/04/14 05:00:26;;;;;;;12.82;5.07;;;;;;;3.04;100.00;100271.75;5045791;28;20524;-78
2023/04/14 05:02:52;;;;;;;12.25;5.18;;;;;;;3.04;100.00;100273.50;5054589;28;20049;-78
2023/04/14 05:05:20;;;;;;;11.93;5.93;;;;;;;3.05;100.00;100272.56;5046997;28;20139;-77
2023/04/14 05:07:47;;;;;;;20.15;5.72;;;;;;;3.12;100.00;100260.84;5055612;28;20132;-76
2023/04/14 05:10:14;;;;;;;18.65;5.45;;;;;;;3.15;100.00;100265.78;5048386;28;20055;-78
2023/04/14 05:12:40;;;;;;;20.25;5.80;;;;;;;3.18;100.00;100271.53;5049770;28;20045;-78
2023/04/14 05:15:08;;;;;;;12.98;5.25;;;;;;;3.27;100.00;100270.84;5053945;28;20402;-77
2023/04/14 05:17:35;;;;;;;17.00;5.88;;;;;;;3.33;100.00;100270.31;5054033;28;20064;-78
2023/04/14 05:20:02;;;;;;;28.38;5.72;;;;;;;3.43;100.00;100267.03;5056895;28;20441;-80
2023/04/14 05:22:32;;;;;;;15.75;5.78;;;;;;;3.40;100.00;100262.09;5051114;28;20120;-78
2023/04/14 05:24:58;;;;;;;24.77;7.82;;;;;;;3.44;100.00;100272.09;5055956;28;20053;-78
2023/04/14 05:27:25;;;;;;;13.65;6.60;;;;;;;3.56;100.00;100271.13;5054689;28;20052;-78
2023/04/14 05:29:52;;;;;;;13.98;5.72;;;;;;;3.56;100.00;100265.97;5054790;28;20128;-78
2023/04/14 05:32:20;;;;;;;14.60;6.68;;;;;;;3.64;100.00;100268.78;5055422;28;20132;-79
2023/04/14 05:34:46;;;;;;;18.13;6.50;;;;;;;3.66;100.00;100271.25;5059560;28;20052;-79
2023/04/14 05:37:13;;;;;;;14.07;6.32;;;;;;;3.78;100.00;100272.84;5060494;28;20072;-79
2023/04/14 05:39:41;;;;;;;13.13;6.30;;;;;;;3.90;100.00;100268.47;5061044;28;20135;-79
2023/04/14 05:42:08;;;;;;;11.27;5.93;;;;;;;4.03;100.00;100274.31;5062066;28;20052;-80
2023/04/14 05:44:34;;;;;;;14.95;5.38;;;;;;;4.01;99.85;100271.03;5064153;28;20072;-80
2023/04/14 05:47:01;;;;;;;21.27;6.03;;;;;;;3.93;100.00;100278.59;5055835;28;20431;-80
2023/04/14 05:49:27;;;;;;;13.05;5.72;;;;;;;4.14;99.96;100281.22;5061225;28;20071;-80
2023/04/14 05:51:55;;;;;;;13.45;5.38;;;;;;;4.15;98.66;100278.53;5063223;28;20081;-77
2023/04/14 05:54:22;;;;;;;10.20;5.40;;;;;;;4.02;99.16;100282.22;5053563;28;20216;-79
2023/04/14 05:56:50;;;;;;;13.63;5.88;;;;;;;4.06;99.01;100288.78;5059782;28;20077;-79
2023/04/14 05:59:16;;;;;;;11.82;5.95;;;;;;;4.23;99.20;100286.50;5052383;28;20509;-79
2023/04/14 06:01:43;;;;;;;16.25;6.18;;;;;;;5.18;98.60;100283.81;5057630;28;20053;-78
2023/04/14 06:04:09;;;;;;;16.20;6.10;;;;;;;6.45;95.67;100291.75;5056510;28;20076;-80
2023/04/14 06:06:36;;;;;;;8.50;4.57;;;;;;;7.50;91.87;100275.03;5058065;28;20095;-80
2023/04/14 06:09:03;;;;;;;12.43;5.28;;;;;;;8.73;87.03;100264.75;5060082;28;20056;-80
2023/04/14 06:11:29;;;;;;;11.38;4.82;;;;;;;9.13;82.53;100255.53;5059202;28;20051;-80
2023/04/14 06:13:57;;;;;;;9.85;4.95;;;;;;;9.89;79.47;100247.63;5055721;28;20072;-80
2023/04/14 06:16:24;;;;;;;15.48;5.50;;;;;;;10.40;77.00;100240.50;5046899;28;20132;-79
2023/04/14 06:18:51;;;;;;;22.58;6.13;;;;;;;10.25;74.90;100230.69;5067321;23;20564;-77
2023/04/14 06:21:20;;;;;;;15.02;7.22;;;;;;;10.75;73.53;100229.66;5053084;28;20085;-78
2023/04/14 06:23:47;;;;;;;14.18;5.40;;;;;;;10.99;72.82;100231.38;5052994;28;20409;-79
2023/04/14 06:26:14;;;;;;;14.82;5.68;;;;;;;11.27;71.65;100229.19;5055492;28;20088;-79
2023/04/14 06:28:40;;;;;;;15.98;4.80;;;;;;;12.00;69.97;100223.53;5056249;28;20064;-81
2023/04/14 06:31:09;;;;;;;11.40;5.20;;;;;;;12.37;67.88;100221.94;5043011;28;20111;-79
2023/04/14 06:33:35;;;;;;;13.82;4.60;;;;;;;12.32;68.22;100227.69;5021616;28;20062;-80
2023/04/14 06:36:02;;;;;;;13.38;4.72;;;;;;;12.54;67.51;100213.72;5037719;28;20077;-79
2023/04/14 06:38:29;;;;;;;10.15;4.90;;;;;;;12.64;66.01;100210.84;5026652;28;20506;-78
2023/04/14 06:40:55;;;;;;;9.88;4.82;;;;;;;13.27;65.29;100205.06;5035878;28;20674;-79
2023/04/14 06:43:22;;;;;;;12.63;4.72;;;;;;;13.26;64.81;100203.41;5036689;28;20136;-80
2023/04/14 06:45:49;;;;;;;14.77;4.70;;;;;;;14.19;62.87;100199.91;5028585;28;20125;-77
2023/04/14 06:48:17;;;;;;;10.95;5.00;;;;;;;13.66;63.66;100211.78;5033164;28;20505;-79
2023/04/14 06:50:44;;;;;;;9.02;4.70;;;;;;;14.29;62.91;100218.03;5033032;28;20132;-78
2023/04/14 06:53:11;;;;;;;9.57;4.63;;;;;;;13.71;63.13;100216.47;5034007;28;20402;-77
2023/04/14 06:55:40;;;;;;;9.32;4.63;;;;;;;12.24;65.89;100218.13;5033536;28;20092;-78
2023/04/14 06:58:07;;;;;;;10.27;5.00;;;;;;;12.17;67.61;100222.44;5038199;28;20478;-78
2023/04/14 07:00:34;;;;;;;10.02;4.75;;;;;;;13.84;65.12;100216.59;5039095;28;20117;-79
2023/04/14 07:03:00;;;;;;;11.63;5.38;;;;;;;12.78;64.56;100203.97;5039077;28;20133;-77
2023/04/14 07:05:28;;;;;;;8.00;4.47;;;;;;;11.88;66.73;100212.63;5039085;28;20046;-78
2023/04/14 07:07:55;;;;;;;15.27;5.28;;;;;;;12.71;66.21;100217.03;5039451;28;20076;-80
2023/04/14 07:10:22;;;;;;;10.45;5.05;;;;;;;12.87;65.97;100221.25;5034670;28;20111;-78
2023/04/14 07:12:48;;;;;;;11.63;4.53;;;;;;;13.85;64.80;100205.09;5039264;28;20081;-78
2023/04/14 07:15:15;;;;;;;14.13;5.40;;;;;;;14.96;63.20;100203.53;5033680;28;20136;-77
2023/04/14 07:17:41;;;;;;;9.43;4.93;;;;;;;14.61;60.64;100187.72;5027146;28;20081;-77
2023/04/14 07:20:09;;;;;;;15.90;5.20;;;;;;;11.89;66.37;100206.41;5028848;28;20084;-78
2023/04/14 07:22:40;;;;;;;9.20;4.50;;;;;;;14.03;64.33;100197.56;5037002;28;20142;-77
2023/04/14 07:25:06;;;;;;;8.57;5.10;;;;;;;12.60;65.84;100191.22;5037201;28;20088;-79
2023/04/14 07:27:35;;;;;;;12.55;5.28;;;;;;;14.21;65.13;100197.91;5037870;28;20096;-79
2023/04/14 07:30:01;;;;;;;8.65;4.93;;;;;;;13.34;64.48;100183.28;5037198;28;20049;-77
2023/04/14 07:32:28;;;;;;;12.63;5.47;;;;;;;12.91;64.49;100191.84;5036639;28;20152;-78
2023/04/14 07:34:55;;;;;;;9.27;4.93;;;;;;;13.64;64.38;100194.56;5034302;28;20129;-78
2023/04/14 07:37:21;;;;;;;10.18;4.60;;;;;;;14.69;62.65;100190.19;5031613;28;20469;-77
2023/04/14 07:39:51;;;;;;;11.55;4.95;;;;;;;14.58;61.98;100185.47;5027305;28;20077;-78
2023/04/14 07:42:17;;;;;;;10.27;4.80;;;;;;;13.80;64.16;100194.31;5035630;28;20585;-78
2023/04/14 07:44:44;;;;;;;11.02;4.65;;;;;;;14.77;63.59;100190.03;5035139;28;20133;-77
2023/04/14 07:47:10;;;;;;;14.70;5.28;;;;;;;15.38;61.22;100178.75;5035372;28;20584;-79
2023/04/14 07:49:37;;;;;;;11.25;5.65;;;;;;;16.07;59.46;100168.75;5035640;28;20077;-77
2023/04/14 07:52:04;;;;;;;11.20;5.25;;;;;;;14.49;59.92;100168.19;5035697;28;20053;-78
2023/04/14 07:54:31;;;;;;;8.25;4.28;;;;;;;14.25;61.43;100182.56;5029353;28;20060;-77
2023/04/14 07:56:59;;;;;;;12.23;5.13;;;;;;;14.33;62.29;100177.16;5039882;28;20111;-78
2023/04/14 07:59:26;;;;;;;9.57;5.00;;;;;;;15.56;60.33;100166.69;5027513;28;20053;-77
2023/04/14 08:01:52;;;;;;;8.68;4.90;;;;;;;15.88;58.84;100159.00;5037305;28;20528;-79
2023/04/14 08:04:19;;;;;;;11.10;5.43;;;;;;;14.28;59.77;100167.19;5030824;28;20439;-80
2023/04/14 08:06:46;;;;;;;14.00;5.65;;;;;;;15.53;59.13;100161.78;5025769;28;20502;-79
2023/04/14 08:09:13;;;;;;;12.35;5.63;;;;;;;13.79;60.75;100169.00;5024764;28;20487;-78
2023/04/14 08:11:40;;;;;;;9.73;5.40;;;;;;;14.21;62.81;100176.84;5034548;28;20045;-79
2023/04/14 08:14:08;;;;;;;11.63;5.97;;;;;;;14.44;61.28;100176.66;5026359;28;20088;-78
2023/04/14 08:16:35;;;;;;;19.02;6.22;;;;;;;14.72;60.87;100168.72;5035181;28;20061;-80
2023/04/14 08:19:02;;;;;;;11.43;5.40;;;;;;;15.21;61.09;100162.47;5038345;28;20126;-79
2023/04/14 08:21:29;;;;;;;10.70;5.50;;;;;;;13.13;62.54;100168.28;5037426;28;20053;-80
2023/04/14 08:23:57;;;;;;;34.92;21.02;;;;;;;15.36;60.85;100176.31;5035691;28;20113;-77
2023/04/14 08:26:26;;;;;;;10.55;4.80;;;;;;;15.60;59.08;100167.88;5036520;28;20535;-77
2023/04/14 08:28:53;;;;;;;12.23;5.60;;;;;;;15.91;58.92;100175.25;5036467;28;20046;-79
2023/04/14 08:31:22;;;;;;;12.65;5.60;;;;;;;13.63;60.80;100171.91;5038304;28;20050;-78
2023/04/14 08:33:49;;;;;;;13.52;5.70;;;;;;;13.70;63.02;100180.69;5037729;28;20052;-78
2023/04/14 08:36:16;;;;;;;8.68;5.00;;;;;;;14.67;60.23;100165.06;5037953;28;20548;-79
2023/04/14 08:38:42;;;;;;;8.15;4.75;;;;;;;15.13;60.52;100162.63;5038240;28;20073;-79
2023/04/14 08:41:13;;;;;;;10.15;5.35;;;;;;;14.80;59.61;100158.03;5037561;28;20381;-78
2023/04/14 08:43:40;;;;;;;12.25;5.28;;;;;;;14.15;60.25;100156.59;5037642;28;20511;-80
2023/04/14 08:46:09;;;;;;;7.93;4.72;;;;;;;14.29;60.33;100168.84;5032367;28;20152;-81
2023/04/14 08:48:39;;;;;;;12.52;4.93;;;;;;;15.87;58.88;100160.03;5039381;28;20104;-80
2023/04/14 08:51:10;;;;;;;9.50;4.90;;;;;;;14.84;59.51;100153.19;5036868;28;20079;-79
2023/04/14 08:53:44;;;;;;;8.55;4.40;;;;;;;14.31;59.67;100159.94;5036354;28;20053;-79
2023/04/14 08:56:12;;;;;;;10.30;4.72;;;;;;;13.54;60.13;100152.81;5035747;28;20514;-78
2023/04/14 08:58:40;;;;;;;11.27;4.93;;;;;;;14.31;59.26;100152.03;5035844;28;20145;-78
2023/04/14 09:01:07;;;;;;;10.45;4.30;;;;;;;13.33;60.50;100150.94;5037490;28;20049;-78
2023/04/14 09:03:34;;;;;;;10.63;4.97;;;;;;;13.27;61.60;100155.13;5037324;28;20163;-79
2023/04/14 09:06:04;;;;;;;11.05;4.75;;;;;;;13.28;60.85;100145.44;5029879;28;20049;-78
2023/04/14 09:08:32;;;;;;;8.98;4.28;;;;;;;13.91;60.18;100141.22;5038265;28;20065;-80
2023/04/14 09:11:00;;;;;;;10.65;4.38;;;;;;;13.93;60.19;100150.53;5036257;28;20061;-79
2023/04/14 09:13:28;;;;;;;11.02;5.10;;;;;;;13.49;60.33;100142.03;5037610;28;20096;-79
2023/04/14 09:15:56;;;;;;;11.68;4.65;;;;;;;13.74;60.32;100143.28;5032151;28;20050;-78
2023/04/14 09:18:23;;;;;;;9.90;4.38;;;;;;;14.39;59.40;100146.63;5041818;28;20067;-79
2023/04/14 09:20:53;;;;;;;9.27;4.55;;;;;;;14.44;58.80;100133.75;5041347;28;20103;-80
2023/04/14 09:23:22;;;;;;;10.07;4.50;;;;;;;13.88;60.17;100139.78;5039476;28;20046;-79
2023/04/14 09:25:48;;;;;;;10.35;4.45;;;;;;;13.45;61.28;100146.84;5039103;28;20132;-77
2023/04/14 09:28:15;;;;;;;11.35;4.63;;;;;;;14.22;59.63;100135.56;5041668;28;20107;-79
2023/04/14 09:30:42;;;;;;;8.98;4.28;;;;;;;13.67;60.78;100139.78;5030680;28;20070;-78
2023/04/14 09:33:21;;;;;;;10.02;4.35;;;;;;;14.15;59.83;100124.22;5041318;28;20056;-78
2023/04/14 09:35:52;;;;;;;10.88;4.00;;;;;;;13.49;60.09;100119.19;5037927;28;20050;-79
2023/04/14 09:38:34;;;;;;;10.30;4.75;;;;;;;13.57;60.39;100126.97;5040150;28;20132;-79
2023/04/14 09:41:01;;;;;;;8.73;4.38;;;;;;;13.09;61.43;100132.88;5037231;28;20050;-79
2023/04/14 09:43:29;;;;;;;11.45;3.83;;;;;;;12.76;62.10;100128.00;5030317;28;20056;-78
2023/04/14 09:45:58;;;;;;;7.63;3.60;;;;;;;13.71;61.44;100132.31;5035428;28;20439;-79
2023/04/14 09:48:25;;;;;;;11.82;4.00;;;;;;;13.34;61.70;100130.75;5036897;28;20132;-78
2023/04/14 09:50:59;;;;;;;10.15;3.90;;;;;;;13.27;61.99;100123.59;5035047;28;20045;-78
2023/04/14 09:53:27;;;;;;;6.35;3.75;;;;;;;13.20;61.37;100127.19;5035092;28;20056;-78
2023/04/14 09:55:55;;;;;;;9.18;3.88;;;;;;;13.04;61.82;100130.78;5033914;28;20080;-80
2023/04/14 09:58:22;;;;;;;12.20;3.70;;;;;;;13.08;62.52;100134.69;5030785;28;20099;-80
2023/04/14 10:00:50;;;;;;;9.65;3.63;;;;;;;13.36;61.79;100128.75;5035734;28;20088;-79
2023/04/14 10:03:18;;;;;;;11.73;4.03;;;;;;;13.17;61.66;100131.00;5035692;28;20063;-79
2023/04/14 10:05:47;;;;;;;9.95;4.50;;;;;;;13.49;61.02;100128.88;5033585;28;20049;-81
2023/04/14 10:08:13;;;;;;;13.48;4.00;;;;;;;13.35;60.90;100127.94;5035530;28;20057;-78
2023/04/14 10:10:40;;;;;;;7.80;3.42;;;;;;;13.39;59.88;100108.16;5034895;28;20057;-77
2023/04/14 10:13:13;;;;;;;13.32;3.70;;;;;;;13.47;59.76;100115.13;5027249;28;20064;-79
2023/04/14 10:15:40;;;;;;;15.52;4.72;;;;;;;14.12;59.86;100112.25;5035975;28;20053;-78
2023/04/14 10:18:07;;;;;;;10.88;3.70;;;;;;;14.47;58.09;100096.50;5034848;28;20088;-79
2023/04/14 10:20:34;;;;;;;7.85;3.65;;;;;;;13.64;58.97;100099.91;5035568;28;20069;-80
2023/04/14 10:23:02;;;;;;;11.05;4.10;;;;;;;14.44;57.15;100075.81;5035470;28;20081;-78
2023/04/14 10:25:30;;;;;;;8.75;3.65;;;;;;;14.51;55.91;100066.16;5033345;28;20091;-78
2023/04/14 10:27:57;;;;;;;7.82;3.13;;;;;;;13.95;55.83;100066.19;5035875;28;20057;-78
2023/04/14 10:30:26;;;;;;;6.07;3.42;;;;;;;14.65;57.21;100072.28;5034133;28;20145;-79
2023/04/14 10:32:53;;;;;;;7.68;3.10;;;;;;;14.96;55.92;100077.06;5035439;28;20092;-79
2023/04/14 10:35:20;;;;;;;10.02;4.28;;;;;;;15.55;53.95;100064.81;5030494;28;20521;-78
2023/04/14 10:37:52;;;;;;;8.25;3.00;;;;;;;15.48;52.00;100048.19;5033554;28;20099;-79
2023/04/14 10:40:19;;;;;;;9.13;3.75;;;;;;;15.78;54.25;100066.25;5035720;28;20049;-80
2023/04/14 10:42:53;;;;;;;8.07;3.45;;;;;;;15.52;54.23;100051.22;5035037;28;20407;-79
2023/04/14 10:45:20;;;;;;;10.00;3.70;;;;;;;15.84;54.34;100046.97;5036519;28;20045;-79
2023/04/14 10:47:49;;;;;;;7.65;3.55;;;;;;;15.45;54.64;100051.22;5038041;28;20505;-80
2023/04/14 10:50:18;;;;;;;10.00;3.67;;;;;;;15.34;53.16;100036.00;5039201;28;20608;-81
2023/04/14 10:52:52;;;;;;;6.15;2.97;;;;;;;15.56;51.87;100023.44;5032722;28;20089;-80
2023/04/14 10:55:22;;;;;;;7.45;3.15;;;;;;;15.85;52.33;100030.94;5040527;28;20120;-79
2023/04/14 10:57:48;;;;;;;5.47;3.30;;;;;;;15.75;51.06;100025.28;5044667;28;20049;-79
2023/04/14 11:00:24;;;;;;;6.07;2.88;;;;;;;16.06;50.96;100022.00;5047001;28;20111;-79
2023/04/14 11:03:02;;;;;;;10.40;3.80;;;;;;;16.15;52.05;100027.84;5037507;28;20045;-77
2023/04/14 11:05:29;;;;;;;9.68;3.97;;;;;;;14.69;52.84;100028.75;5039101;28;20046;-79
2023/04/14 11:07:57;;;;;;;6.57;3.10;;;;;;;15.52;54.08;100028.31;5028246;28;20418;-78
2023/04/14 11:10:31;;;;;;;8.40;3.13;;;;;;;16.25;51.64;100010.56;5034357;28;20139;-79
2023/04/14 11:13:02;;;;;;;10.32;3.33;;;;;;;16.06;49.98;100006.16;5034327;28;20117;-79
2023/04/14 11:15:51;;;;;;;14.93;4.22;;;;;;;16.36;52.36;100016.22;5033436;28;20152;-78
2023/04/14 11:18:20;;;;;;;5.75;3.42;;;;;;;15.38;50.59;99994.22;5028714;28;20045;-78
2023/04/14 11:20:47;;;;;;;9.45;3.80;;;;;;;14.27;52.55;100012.94;5026699;28;20081;-78
2023/04/14 11:23:15;;;;;;;8.30;3.25;;;;;;;14.45;52.95;100014.28;5032848;28;20061;-79
2023/04/14 11:25:42;;;;;;;7.90;2.85;;;;;;;14.69;51.82;100000.56;5032662;28;20402;-79
2023/04/14 11:28:09;;;;;;;6.57;3.13;;;;;;;14.73;51.60;99999.19;5028339;28;20046;-78